<?xml version="1.0" encoding="UTF-8" standalone="no" ?>
<gpx xmlns="http://www.topografix.com/GPX/1/1" xmlns:xsi="http://www.w3.org/2001/XMLSchema-instance" xsi:schemaLocation="http://www.topografix.com/GPX/1/1 http://www.topografix.com/GPX/1/1/gpx.xsd" version="1.1" creator="VisuGPX - https://www.visugpx.com">
  <metadata>
    <name>13721807-Les Rousses Jura</name>
  </metadata>
  <trk>
    <name><![CDATA[13708850-Les Rousses Jura]]></name>
    <extensions>
      <line xmlns="http://www.topografix.com/GPX/gpx_style/0/2">
        <color>0000FF</color>
        <width>4</width>
      </line>
    </extensions>
    <trkseg>
      <trkpt lat="46.48353" lon="6.06106">
        <ele>1115</ele>
        <time>2021-09-15T12:53:56Z</time>
      </trkpt>
      <trkpt lat="46.48401" lon="6.06193">
        <ele>1124</ele>
        <time>2021-09-15T12:55:38Z</time>
      </trkpt>
      <trkpt lat="46.48415" lon="6.06285">
        <ele>1128</ele>
        <time>2021-09-15T12:57:05Z</time>
      </trkpt>
      <trkpt lat="46.48488" lon="6.06482">
        <ele>1125</ele>
        <time>2021-09-15T13:00:31Z</time>
      </trkpt>
      <trkpt lat="46.48526" lon="6.06592">
        <ele>1123</ele>
        <time>2021-09-15T13:02:24Z</time>
      </trkpt>
      <trkpt lat="46.48536" lon="6.06644">
        <ele>1121</ele>
        <time>2021-09-15T13:03:13Z</time>
      </trkpt>
      <trkpt lat="46.48577" lon="6.06774">
        <ele>1118</ele>
        <time>2021-09-15T13:05:25Z</time>
      </trkpt>
      <trkpt lat="46.48606" lon="6.06776">
        <ele>1116</ele>
        <time>2021-09-15T13:06:03Z</time>
      </trkpt>
      <trkpt lat="46.48649" lon="6.06814">
        <ele>1111</ele>
        <time>2021-09-15T13:07:11Z</time>
      </trkpt>
      <trkpt lat="46.48694" lon="6.06859">
        <ele>1108</ele>
        <time>2021-09-15T13:08:23Z</time>
      </trkpt>
      <trkpt lat="46.48731" lon="6.06861">
        <ele>1106</ele>
        <time>2021-09-15T13:09:13Z</time>
      </trkpt>
      <trkpt lat="46.48783" lon="6.07052">
        <ele>1108</ele>
        <time>2021-09-15T13:12:22Z</time>
      </trkpt>
      <trkpt lat="46.48915" lon="6.07034">
        <ele>1114</ele>
        <time>2021-09-15T13:15:19Z</time>
      </trkpt>
      <trkpt lat="46.48935" lon="6.07095">
        <ele>1119</ele>
        <time>2021-09-15T13:16:21Z</time>
      </trkpt>
      <trkpt lat="46.49034" lon="6.07254">
        <ele>1120</ele>
        <time>2021-09-15T13:19:38Z</time>
      </trkpt>
      <trkpt lat="46.49129" lon="6.07449">
        <ele>1106</ele>
        <time>2021-09-15T13:23:17Z</time>
      </trkpt>
      <trkpt lat="46.49203" lon="6.07568">
        <ele>1094</ele>
        <time>2021-09-15T13:25:44Z</time>
      </trkpt>
      <trkpt lat="46.49459" lon="6.07492">
        <ele>1076</ele>
        <time>2021-09-15T13:31:33Z</time>
      </trkpt>
      <trkpt lat="46.49444" lon="6.07344">
        <ele>1078</ele>
        <time>2021-09-15T13:33:50Z</time>
      </trkpt>
      <trkpt lat="46.49593" lon="6.07294">
        <ele>1068</ele>
        <time>2021-09-15T13:37:15Z</time>
      </trkpt>
      <trkpt lat="46.4966" lon="6.07424">
        <ele>1062</ele>
        <time>2021-09-15T13:39:44Z</time>
      </trkpt>
      <trkpt lat="46.49625" lon="6.07492">
        <ele>1064</ele>
        <time>2021-09-15T13:41:02Z</time>
      </trkpt>
      <trkpt lat="46.49628" lon="6.07698">
        <ele>1058</ele>
        <time>2021-09-15T13:44:11Z</time>
      </trkpt>
      <trkpt lat="46.49603" lon="6.0781">
        <ele>1059</ele>
        <time>2021-09-15T13:45:59Z</time>
      </trkpt>
      <trkpt lat="46.4962" lon="6.07889">
        <ele>1061</ele>
        <time>2021-09-15T13:47:15Z</time>
      </trkpt>
      <trkpt lat="46.49685" lon="6.08068">
        <ele>1060</ele>
        <time>2021-09-15T13:50:21Z</time>
      </trkpt>
      <trkpt lat="46.49757" lon="6.08246">
        <ele>1061</ele>
        <time>2021-09-15T13:53:31Z</time>
      </trkpt>
      <trkpt lat="46.49796" lon="6.0814">
        <ele>1057</ele>
        <time>2021-09-15T13:55:21Z</time>
      </trkpt>
      <trkpt lat="46.49802" lon="6.08098">
        <ele>1057</ele>
        <time>2021-09-15T13:56:01Z</time>
      </trkpt>
      <trkpt lat="46.49812" lon="6.0799">
        <ele>1056</ele>
        <time>2021-09-15T13:57:41Z</time>
      </trkpt>
      <trkpt lat="46.49874" lon="6.07871">
        <ele>1056</ele>
        <time>2021-09-15T13:59:58Z</time>
      </trkpt>
      <trkpt lat="46.49921" lon="6.07828">
        <ele>1056</ele>
        <time>2021-09-15T14:01:12Z</time>
      </trkpt>
      <trkpt lat="46.49991" lon="6.07826">
        <ele>1057</ele>
        <time>2021-09-15T14:02:45Z</time>
      </trkpt>
      <trkpt lat="46.50025" lon="6.07788">
        <ele>1072</ele>
        <time>2021-09-15T14:03:43Z</time>
      </trkpt>
      <trkpt lat="46.50085" lon="6.07835">
        <ele>1083</ele>
        <time>2021-09-15T14:05:14Z</time>
      </trkpt>
      <trkpt lat="46.50157" lon="6.07922">
        <ele>1099</ele>
        <time>2021-09-15T14:07:19Z</time>
      </trkpt>
      <trkpt lat="46.50259" lon="6.0803">
        <ele>1114</ele>
        <time>2021-09-15T14:10:07Z</time>
      </trkpt>
      <trkpt lat="46.50325" lon="6.08073">
        <ele>1132</ele>
        <time>2021-09-15T14:11:43Z</time>
      </trkpt>
      <trkpt lat="46.50376" lon="6.08142">
        <ele>1136</ele>
        <time>2021-09-15T14:13:16Z</time>
      </trkpt>
      <trkpt lat="46.50453" lon="6.08236">
        <ele>1150</ele>
        <time>2021-09-15T14:15:31Z</time>
      </trkpt>
      <trkpt lat="46.50525" lon="6.08207">
        <ele>1175</ele>
        <time>2021-09-15T14:17:10Z</time>
      </trkpt>
      <trkpt lat="46.50569" lon="6.08222">
        <ele>1182</ele>
        <time>2021-09-15T14:18:11Z</time>
      </trkpt>
      <trkpt lat="46.50574" lon="6.08177">
        <ele>1187</ele>
        <time>2021-09-15T14:18:53Z</time>
      </trkpt>
      <trkpt lat="46.50559" lon="6.08083">
        <ele>1190</ele>
        <time>2021-09-15T14:20:21Z</time>
      </trkpt>
      <trkpt lat="46.50559" lon="6.08025">
        <ele>1195</ele>
        <time>2021-09-15T14:21:14Z</time>
      </trkpt>
      <trkpt lat="46.50532" lon="6.07969">
        <ele>1194</ele>
        <time>2021-09-15T14:22:17Z</time>
      </trkpt>
      <trkpt lat="46.50557" lon="6.07905">
        <ele>1207</ele>
        <time>2021-09-15T14:23:25Z</time>
      </trkpt>
      <trkpt lat="46.50525" lon="6.07814">
        <ele>1211</ele>
        <time>2021-09-15T14:24:59Z</time>
      </trkpt>
      <trkpt lat="46.50561" lon="6.0782">
        <ele>1217</ele>
        <time>2021-09-15T14:25:47Z</time>
      </trkpt>
      <trkpt lat="46.506" lon="6.07773">
        <ele>1227</ele>
        <time>2021-09-15T14:26:55Z</time>
      </trkpt>
      <trkpt lat="46.50655" lon="6.07746">
        <ele>1237</ele>
        <time>2021-09-15T14:28:12Z</time>
      </trkpt>
      <trkpt lat="46.50659" lon="6.0772">
        <ele>1239</ele>
        <time>2021-09-15T14:28:37Z</time>
      </trkpt>
      <trkpt lat="46.5064" lon="6.07702">
        <ele>1237</ele>
        <time>2021-09-15T14:29:07Z</time>
      </trkpt>
      <trkpt lat="46.50598" lon="6.07626">
        <ele>1236</ele>
        <time>2021-09-15T14:30:36Z</time>
      </trkpt>
      <trkpt lat="46.50859" lon="6.07607">
        <ele>1279</ele>
        <time>2021-09-15T14:36:25Z</time>
      </trkpt>
      <trkpt lat="46.50891" lon="6.07506">
        <ele>1278</ele>
        <time>2021-09-15T14:38:07Z</time>
      </trkpt>
      <trkpt lat="46.50865" lon="6.07437">
        <ele>1275</ele>
        <time>2021-09-15T14:39:20Z</time>
      </trkpt>
      <trkpt lat="46.50902" lon="6.07456">
        <ele>1277</ele>
        <time>2021-09-15T14:40:12Z</time>
      </trkpt>
      <trkpt lat="46.5093" lon="6.07456">
        <ele>1278</ele>
        <time>2021-09-15T14:40:49Z</time>
      </trkpt>
      <trkpt lat="46.50896" lon="6.07403">
        <ele>1274</ele>
        <time>2021-09-15T14:41:56Z</time>
      </trkpt>
      <trkpt lat="46.50866" lon="6.07314">
        <ele>1270</ele>
        <time>2021-09-15T14:43:27Z</time>
      </trkpt>
      <trkpt lat="46.50823" lon="6.07266">
        <ele>1267</ele>
        <time>2021-09-15T14:44:39Z</time>
      </trkpt>
      <trkpt lat="46.50786" lon="6.07205">
        <ele>1268</ele>
        <time>2021-09-15T14:45:54Z</time>
      </trkpt>
      <trkpt lat="46.50758" lon="6.07182">
        <ele>1266</ele>
        <time>2021-09-15T14:46:37Z</time>
      </trkpt>
      <trkpt lat="46.50738" lon="6.07153">
        <ele>1264</ele>
        <time>2021-09-15T14:47:14Z</time>
      </trkpt>
      <trkpt lat="46.50733" lon="6.07107">
        <ele>1261</ele>
        <time>2021-09-15T14:47:57Z</time>
      </trkpt>
      <trkpt lat="46.50713" lon="6.07082">
        <ele>1259</ele>
        <time>2021-09-15T14:48:32Z</time>
      </trkpt>
      <trkpt lat="46.50651" lon="6.07028">
        <ele>1250</ele>
        <time>2021-09-15T14:50:09Z</time>
      </trkpt>
      <trkpt lat="46.506" lon="6.06934">
        <ele>1244</ele>
        <time>2021-09-15T14:51:59Z</time>
      </trkpt>
      <trkpt lat="46.50554" lon="6.06827">
        <ele>1240</ele>
        <time>2021-09-15T14:53:55Z</time>
      </trkpt>
      <trkpt lat="46.50525" lon="6.0677">
        <ele>1240</ele>
        <time>2021-09-15T14:55:00Z</time>
      </trkpt>
      <trkpt lat="46.50496" lon="6.06775">
        <ele>1238</ele>
        <time>2021-09-15T14:55:39Z</time>
      </trkpt>
      <trkpt lat="46.5047" lon="6.06739">
        <ele>1238</ele>
        <time>2021-09-15T14:56:27Z</time>
      </trkpt>
      <trkpt lat="46.50392" lon="6.06685">
        <ele>1233</ele>
        <time>2021-09-15T14:58:22Z</time>
      </trkpt>
      <trkpt lat="46.50363" lon="6.06648">
        <ele>1230</ele>
        <time>2021-09-15T14:59:14Z</time>
      </trkpt>
      <trkpt lat="46.5034" lon="6.06641">
        <ele>1230</ele>
        <time>2021-09-15T14:59:45Z</time>
      </trkpt>
      <trkpt lat="46.50334" lon="6.06574">
        <ele>1233</ele>
        <time>2021-09-15T15:00:47Z</time>
      </trkpt>
      <trkpt lat="46.50285" lon="6.06436">
        <ele>1241</ele>
        <time>2021-09-15T15:03:10Z</time>
      </trkpt>
      <trkpt lat="46.50212" lon="6.06286">
        <ele>1244</ele>
        <time>2021-09-15T15:05:58Z</time>
      </trkpt>
      <trkpt lat="46.50184" lon="6.06197">
        <ele>1246</ele>
        <time>2021-09-15T15:07:28Z</time>
      </trkpt>
      <trkpt lat="46.50161" lon="6.06154">
        <ele>1246</ele>
        <time>2021-09-15T15:08:18Z</time>
      </trkpt>
      <trkpt lat="46.50084" lon="6.06017">
        <ele>1238</ele>
        <time>2021-09-15T15:11:01Z</time>
      </trkpt>
      <trkpt lat="46.50045" lon="6.05938">
        <ele>1236</ele>
        <time>2021-09-15T15:12:30Z</time>
      </trkpt>
      <trkpt lat="46.50004" lon="6.05887">
        <ele>1233</ele>
        <time>2021-09-15T15:13:42Z</time>
      </trkpt>
      <trkpt lat="46.49988" lon="6.05836">
        <ele>1230</ele>
        <time>2021-09-15T15:14:34Z</time>
      </trkpt>
      <trkpt lat="46.49927" lon="6.05828">
        <ele>1231</ele>
        <time>2021-09-15T15:15:55Z</time>
      </trkpt>
      <trkpt lat="46.49899" lon="6.05812">
        <ele>1229</ele>
        <time>2021-09-15T15:16:35Z</time>
      </trkpt>
      <trkpt lat="46.49865" lon="6.05817">
        <ele>1228</ele>
        <time>2021-09-15T15:17:21Z</time>
      </trkpt>
      <trkpt lat="46.49796" lon="6.05828">
        <ele>1224</ele>
        <time>2021-09-15T15:18:54Z</time>
      </trkpt>
      <trkpt lat="46.49745" lon="6.05784">
        <ele>1219</ele>
        <time>2021-09-15T15:20:13Z</time>
      </trkpt>
      <trkpt lat="46.49701" lon="6.05712">
        <ele>1211</ele>
        <time>2021-09-15T15:21:41Z</time>
      </trkpt>
      <trkpt lat="46.4966" lon="6.05725">
        <ele>1209</ele>
        <time>2021-09-15T15:22:37Z</time>
      </trkpt>
      <trkpt lat="46.49617" lon="6.05663">
        <ele>1206</ele>
        <time>2021-09-15T15:23:58Z</time>
      </trkpt>
      <trkpt lat="46.49573" lon="6.0564">
        <ele>1203</ele>
        <time>2021-09-15T15:25:00Z</time>
      </trkpt>
      <trkpt lat="46.49525" lon="6.05604">
        <ele>1198</ele>
        <time>2021-09-15T15:26:13Z</time>
      </trkpt>
      <trkpt lat="46.4948" lon="6.05526">
        <ele>1192</ele>
        <time>2021-09-15T15:27:46Z</time>
      </trkpt>
      <trkpt lat="46.49437" lon="6.05525">
        <ele>1186</ele>
        <time>2021-09-15T15:28:43Z</time>
      </trkpt>
      <trkpt lat="46.49365" lon="6.0546">
        <ele>1177</ele>
        <time>2021-09-15T15:30:37Z</time>
      </trkpt>
      <trkpt lat="46.49321" lon="6.05386">
        <ele>1171</ele>
        <time>2021-09-15T15:32:06Z</time>
      </trkpt>
      <trkpt lat="46.49286" lon="6.05322">
        <ele>1166</ele>
        <time>2021-09-15T15:33:22Z</time>
      </trkpt>
      <trkpt lat="46.49295" lon="6.05279">
        <ele>1165</ele>
        <time>2021-09-15T15:34:03Z</time>
      </trkpt>
      <trkpt lat="46.49265" lon="6.05187">
        <ele>1159</ele>
        <time>2021-09-15T15:35:36Z</time>
      </trkpt>
      <trkpt lat="46.49245" lon="6.05153">
        <ele>1156</ele>
        <time>2021-09-15T15:36:17Z</time>
      </trkpt>
      <trkpt lat="46.49183" lon="6.05176">
        <ele>1153</ele>
        <time>2021-09-15T15:37:43Z</time>
      </trkpt>
      <trkpt lat="46.49139" lon="6.05189">
        <ele>1147</ele>
        <time>2021-09-15T15:38:43Z</time>
      </trkpt>
      <trkpt lat="46.49096" lon="6.05254">
        <ele>1142</ele>
        <time>2021-09-15T15:40:06Z</time>
      </trkpt>
      <trkpt lat="46.49076" lon="6.05295">
        <ele>1138</ele>
        <time>2021-09-15T15:40:52Z</time>
      </trkpt>
      <trkpt lat="46.49025" lon="6.05285">
        <ele>1128</ele>
        <time>2021-09-15T15:42:00Z</time>
      </trkpt>
      <trkpt lat="46.49006" lon="6.05322">
        <ele>1123</ele>
        <time>2021-09-15T15:42:43Z</time>
      </trkpt>
      <trkpt lat="46.48987" lon="6.05326">
        <ele>1117</ele>
        <time>2021-09-15T15:43:08Z</time>
      </trkpt>
      <trkpt lat="46.48968" lon="6.053">
        <ele>1112</ele>
        <time>2021-09-15T15:43:43Z</time>
      </trkpt>
      <trkpt lat="46.49003" lon="6.05461">
        <ele>1110</ele>
        <time>2021-09-15T15:46:18Z</time>
      </trkpt>
      <trkpt lat="46.48982" lon="6.05472">
        <ele>1105</ele>
        <time>2021-09-15T15:46:48Z</time>
      </trkpt>
      <trkpt lat="46.48941" lon="6.05439">
        <ele>1097</ele>
        <time>2021-09-15T15:47:51Z</time>
      </trkpt>
      <trkpt lat="46.48879" lon="6.05351">
        <ele>1089</ele>
        <time>2021-09-15T15:49:46Z</time>
      </trkpt>
      <trkpt lat="46.48846" lon="6.05463">
        <ele>1087</ele>
        <time>2021-09-15T15:51:38Z</time>
      </trkpt>
      <trkpt lat="46.48825" lon="6.05517">
        <ele>1085</ele>
        <time>2021-09-15T15:52:35Z</time>
      </trkpt>
      <trkpt lat="46.48752" lon="6.05531">
        <ele>1080</ele>
        <time>2021-09-15T15:54:14Z</time>
      </trkpt>
      <trkpt lat="46.487" lon="6.05525">
        <ele>1078</ele>
        <time>2021-09-15T15:55:23Z</time>
      </trkpt>
      <trkpt lat="46.48689" lon="6.05636">
        <ele>1079</ele>
        <time>2021-09-15T15:57:06Z</time>
      </trkpt>
      <trkpt lat="46.48717" lon="6.05779">
        <ele>1081</ele>
        <time>2021-09-15T15:59:23Z</time>
      </trkpt>
      <trkpt lat="46.48702" lon="6.05842">
        <ele>1087</ele>
        <time>2021-09-15T16:00:24Z</time>
      </trkpt>
      <trkpt lat="46.48707" lon="6.05894">
        <ele>1091</ele>
        <time>2021-09-15T16:01:12Z</time>
      </trkpt>
      <trkpt lat="46.48668" lon="6.0597">
        <ele>1103</ele>
        <time>2021-09-15T16:02:39Z</time>
      </trkpt>
      <trkpt lat="46.48666" lon="6.06025">
        <ele>1108</ele>
        <time>2021-09-15T16:03:30Z</time>
      </trkpt>
      <trkpt lat="46.48675" lon="6.0606">
        <ele>1107</ele>
        <time>2021-09-15T16:04:04Z</time>
      </trkpt>
      <trkpt lat="46.48655" lon="6.06069">
        <ele>1111</ele>
        <time>2021-09-15T16:04:32Z</time>
      </trkpt>
      <trkpt lat="46.48625" lon="6.06005">
        <ele>1110</ele>
        <time>2021-09-15T16:05:43Z</time>
      </trkpt>
      <trkpt lat="46.48562" lon="6.06033">
        <ele>1114</ele>
        <time>2021-09-15T16:07:11Z</time>
      </trkpt>
      <trkpt lat="46.48501" lon="6.06025">
        <ele>1110</ele>
        <time>2021-09-15T16:08:33Z</time>
      </trkpt>
      <trkpt lat="46.48427" lon="6.0603">
        <ele>1111</ele>
        <time>2021-09-15T16:10:12Z</time>
      </trkpt>
      <trkpt lat="46.48382" lon="6.06073">
        <ele>1114</ele>
        <time>2021-09-15T16:11:24Z</time>
      </trkpt>
      <trkpt lat="46.48395" lon="6.06082">
        <ele>1114</ele>
      </trkpt>
    </trkseg>
  </trk>
</gpx>